createdAt,value
2018-08-11T09:45:33.137Z,102147.24
2018-08-11T09:48:01.950Z,102154.63
2018-08-11T09:50:30.565Z,102156.12
2018-08-11T09:52:59.311Z,102160.23
2018-08-11T09:55:28.921Z,102151.84
2018-08-11T09:57:57.601Z,102153.94
2018-08-11T10:00:31.409Z,102150.36
2018-08-11T10:03:00.106Z,102144.52
2018-08-11T10:05:28.807Z,102137.17
2018-08-11T10:07:57.599Z,102148.31
2018-08-11T10:10:26.361Z,102145.23
2018-08-11T10:12:55.003Z,102140.69
2018-08-11T10:15:23.703Z,102138.84
2018-08-11T10:17:52.337Z,102135.16
2018-08-11T10:20:21.008Z,102128.84
2018-08-11T10:22:49.648Z,102128.24
2018-08-11T10:25:18.310Z,102131.95
2018-08-11T10:27:46.948Z,102124.69
2018-08-11T10:30:15.650Z,102121.83
2018-08-11T10:32:44.285Z,102110.56
2018-08-11T10:35:12.960Z,102112.95
2018-08-11T10:37:41.650Z,102108.80
2018-08-11T10:40:10.457Z,102104.22
2018-08-11T10:42:39.328Z,102099.67
2018-08-11T10:45:07.965Z,102100.44
2018-08-11T10:47:37.098Z,102092.34
2018-08-11T10:50:06.052Z,102093.95
2018-08-11T10:52:34.737Z,102081.58
2018-08-11T10:55:03.426Z,102079.25
2018-08-11T10:57:32.062Z,102084.72
2018-08-11T11:00:00.682Z,102077.17
2018-08-11T11:02:29.373Z,102080.41
2018-08-11T11:04:58.026Z,102081.57
2018-08-11T11:07:26.648Z,102076.52
2018-08-11T11:09:55.454Z,102077.68
2018-08-11T11:12:24.357Z,102075.34
2018-08-11T11:14:53.056Z,102076.05
2018-08-11T11:17:21.756Z,102073.27
2018-08-11T11:19:50.439Z,102073.56
2018-08-11T11:22:19.130Z,102060.77
2018-08-11T11:24:47.955Z,102066.34
2018-08-11T11:27:16.689Z,102059.59
2018-08-11T11:29:45.365Z,102063.72
2018-08-11T11:32:14.065Z,102058.99
2018-08-11T11:34:42.731Z,102052.91
2018-08-11T11:37:11.402Z,102045.95
2018-08-11T11:39:40.065Z,102045.12
2018-08-11T11:42:08.743Z,102039.23
2018-08-11T11:44:37.633Z,102037.75
2018-08-11T11:47:06.348Z,102037.66
2018-08-11T11:49:35.133Z,102041.08
2018-08-11T11:52:04.187Z,102033.37
2018-08-11T11:54:33.049Z,102032.58
2018-08-11T11:57:02.549Z,102034.31
2018-08-11T11:59:43.803Z,102027.19
2018-08-11T12:02:12.873Z,102019.87
2018-08-11T12:04:41.843Z,102028.00
2018-08-11T12:07:10.983Z,102021.98
2018-08-11T12:09:40.117Z,102025.03
2018-08-11T12:12:08.860Z,102025.83
2018-08-11T12:14:37.696Z,102019.86
2018-08-11T12:17:06.638Z,102022.25
2018-08-11T12:19:35.578Z,102020.36
2018-08-11T12:22:04.846Z,102017.83
2018-08-11T12:24:34.030Z,102014.05
2018-08-11T12:27:03.948Z,102023.35
2018-08-11T12:29:32.652Z,102014.77
2018-08-11T12:32:01.491Z,102015.73
2018-08-11T12:34:30.309Z,102013.66
2018-08-11T12:36:59.223Z,102007.98
2018-08-11T12:39:28.006Z,102006.35
2018-08-11T12:41:56.994Z,102003.78
2018-08-11T12:44:25.866Z,101999.94
2018-08-11T12:46:54.633Z,102001.25
2018-08-11T12:49:23.632Z,101999.55
2018-08-11T12:51:52.590Z,101990.14
2018-08-11T12:54:21.401Z,101987.44
2018-08-11T12:56:50.501Z,101980.70
2018-08-11T12:59:19.394Z,101976.17
2018-08-11T13:01:48.314Z,101972.90
2018-08-11T13:04:17.040Z,101969.02
2018-08-11T13:06:45.956Z,101962.89
2018-08-11T13:09:14.801Z,101958.44
2018-08-11T13:11:43.526Z,101970.77
2018-08-11T13:14:12.367Z,101967.16
2018-08-11T13:16:41.116Z,101958.58
2018-08-11T13:19:10.032Z,101963.20
2018-08-11T13:21:39.097Z,101959.31
2018-08-11T13:24:07.869Z,101959.42
2018-08-11T13:26:36.882Z,101955.18
2018-08-11T13:29:05.906Z,101956.57
2018-08-11T13:31:34.831Z,101961.02
2018-08-11T13:34:03.601Z,101959.37
2018-08-11T13:36:32.374Z,101954.78
2018-08-11T13:39:01.364Z,101949.80
2018-08-11T13:41:46.506Z,101951.19
2018-08-11T13:44:16.296Z,101948.09
2018-08-11T13:46:45.122Z,101940.86
2018-08-11T13:49:13.882Z,101934.56
2018-08-11T13:51:42.628Z,101933.53
2018-08-11T13:54:11.439Z,101932.03
2018-08-11T13:56:40.277Z,101929.97
2018-08-11T13:59:09.025Z,101926.23
2018-08-11T14:01:38.502Z,101921.61
2018-08-11T14:04:08.144Z,101921.14
2018-08-11T14:06:36.871Z,101919.92
2018-08-11T14:09:07.663Z,101910.95
2018-08-11T14:11:37.023Z,101907.67
2018-08-11T14:14:05.758Z,101905.50
2018-08-11T14:16:34.598Z,101905.14
2018-08-11T14:19:03.403Z,101898.45
2018-08-11T14:21:32.192Z,101894.70
2018-08-11T14:24:00.912Z,101884.84
2018-08-11T14:26:29.840Z,101872.79
2018-08-11T14:28:58.683Z,101878.63
2018-08-11T14:31:27.446Z,101869.03
2018-08-11T14:33:56.277Z,101865.17
2018-08-11T14:36:25.078Z,101855.75
2018-08-11T14:38:53.711Z,101858.09
2018-08-11T14:41:22.520Z,101861.59
2018-08-11T14:43:51.266Z,101864.22
2018-08-11T14:46:19.966Z,101851.89
2018-08-11T14:48:48.734Z,101837.95
2018-08-11T14:51:17.483Z,101843.02
2018-08-11T14:53:46.376Z,101836.42
2018-08-11T14:56:15.195Z,101831.81
2018-08-11T14:58:43.953Z,101832.66
2018-08-11T15:01:12.714Z,101833.22
2018-08-11T15:03:41.542Z,101822.94
2018-08-11T15:06:10.303Z,101822.36
2018-08-11T15:08:39.118Z,101820.03
2018-08-11T15:11:07.935Z,101823.41
2018-08-11T15:13:37.004Z,101813.88
2018-08-11T15:16:05.845Z,101817.73
2018-08-11T15:18:34.629Z,101805.08
2018-08-11T15:21:03.226Z,101809.39
2018-08-11T15:26:13.311Z,101816.34
2018-08-11T15:28:42.010Z,101812.11
2018-08-11T15:31:10.663Z,101811.25
2018-08-11T15:33:39.332Z,101800.50
2018-08-11T15:36:08.092Z,101793.30
2018-08-11T15:38:36.788Z,101796.86
2018-08-11T15:41:05.715Z,101793.81
2018-08-11T15:43:34.388Z,101795.14
2018-08-11T15:46:03.062Z,101791.53
2018-08-11T15:48:31.958Z,101786.83
2018-08-11T15:51:00.640Z,101780.43
2018-08-11T15:53:29.282Z,101776.31
2018-08-11T15:55:57.945Z,101775.35
2018-08-11T15:58:26.582Z,101775.35
2018-08-11T16:00:55.350Z,101774.41
2018-08-11T16:03:24.002Z,101769.25
2018-08-11T16:05:52.720Z,101769.33
2018-08-11T16:08:21.360Z,101772.94
2018-08-11T16:10:50.081Z,101762.58
2018-08-11T16:13:18.751Z,101762.53
2018-08-11T16:15:47.411Z,101765.82
2018-08-11T16:18:16.075Z,101765.50
2018-08-11T16:20:44.742Z,101757.98
2018-08-11T16:23:13.417Z,101764.97
2018-08-11T16:25:42.076Z,101763.84
2018-08-11T16:28:10.748Z,101754.92
2018-08-11T16:30:39.388Z,101755.20
2018-08-11T16:33:08.175Z,101761.92
2018-08-11T16:35:36.879Z,101751.45
2018-08-11T16:38:05.884Z,101752.39
2018-08-11T16:40:34.571Z,101751.95
2018-08-11T16:43:03.283Z,101748.81
2018-08-11T16:45:31.947Z,101745.78
2018-08-11T16:48:00.744Z,101742.71
2018-08-11T16:50:29.344Z,101745.87
2018-08-11T16:52:58.041Z,101742.96
2018-08-11T16:55:26.703Z,101738.11
2018-08-11T16:57:55.430Z,101739.05
2018-08-11T17:00:24.719Z,101730.95
2018-08-11T17:02:53.384Z,101736.92
2018-08-11T17:05:22.039Z,101724.78
2018-08-11T17:07:50.731Z,101730.72
2018-08-11T17:10:19.380Z,101733.44
2018-08-11T17:12:48.042Z,101733.28
2018-08-11T17:15:17.292Z,101729.33
2018-08-11T17:17:45.980Z,101730.91
2018-08-11T17:20:14.627Z,101733.09
2018-08-11T17:22:43.259Z,101733.09
2018-08-11T17:25:11.944Z,101727.81
2018-08-11T17:27:40.610Z,101720.94
2018-08-11T17:30:09.308Z,101722.73
2018-08-11T17:32:37.994Z,101721.52
2018-08-11T17:35:06.700Z,101714.74
2018-08-11T17:37:35.356Z,101719.36
2018-08-11T17:40:04.819Z,101718.81
2018-08-11T17:42:33.476Z,101716.02
2018-08-11T17:45:02.167Z,101711.87
2018-08-11T17:47:31.048Z,101712.65
2018-08-11T17:49:59.757Z,101711.33
2018-08-11T17:52:28.428Z,101696.94
2018-08-11T17:54:57.122Z,101689.69
2018-08-11T17:57:25.744Z,101691.28
2018-08-11T17:59:54.382Z,101689.11
2018-08-11T18:02:23.063Z,101683.76
2018-08-11T18:04:51.739Z,101693.38
2018-08-11T18:07:20.476Z,101684.92
2018-08-11T18:09:49.119Z,101681.63
2018-08-11T18:12:18.367Z,101678.79
2018-08-11T18:14:47.032Z,101682.47
2018-08-11T18:17:15.701Z,101681.00
2018-08-11T18:19:44.386Z,101667.34
2018-08-11T18:22:13.059Z,101667.16
2018-08-11T18:24:41.751Z,101676.84
2018-08-11T18:27:10.428Z,101672.34
2018-08-11T18:29:39.181Z,101669.05
2018-08-11T18:32:07.882Z,101666.70
2018-08-11T18:34:36.561Z,101671.41
2018-08-11T18:37:05.210Z,101668.10
2018-08-11T18:39:33.856Z,101667.94
2018-08-11T18:42:02.555Z,101665.95
2018-08-11T18:44:31.213Z,101664.36
2018-08-11T18:46:59.877Z,101656.64
2018-08-11T18:49:28.528Z,101658.62
2018-08-11T18:51:57.163Z,101651.29
2018-08-11T18:54:25.810Z,101651.86
2018-08-11T18:56:54.488Z,101647.71
2018-08-11T18:59:23.150Z,101643.87
2018-08-11T19:01:51.824Z,101639.53
2018-08-11T19:04:20.506Z,101648.02
2018-08-11T19:06:49.235Z,101637.47
2018-08-11T19:09:17.977Z,101635.88
2018-08-11T19:11:46.692Z,101638.05
2018-08-11T19:14:15.303Z,101631.27
2018-08-11T19:16:43.983Z,101633.71
2018-08-11T19:19:12.720Z,101638.98
2018-08-11T19:21:41.474Z,101634.17
2018-08-11T19:24:10.238Z,101625.45
2018-08-11T19:26:38.920Z,101621.12
2018-08-11T19:29:07.627Z,101618.48
2018-08-11T19:31:36.348Z,101623.94
2018-08-11T19:34:05.089Z,101626.77
2018-08-11T19:36:33.775Z,101615.46
2018-08-11T19:39:02.498Z,101621.12
2018-08-11T19:41:31.209Z,101611.97
2018-08-11T19:43:59.885Z,101614.14
2018-08-11T19:46:28.681Z,101607.56
2018-08-11T19:48:57.275Z,101614.14
2018-08-11T19:51:25.999Z,101613.30
2018-08-11T19:53:54.732Z,101605.78
2018-08-11T19:56:23.424Z,101609.73
2018-08-11T19:58:52.163Z,101602.22
2018-08-11T20:01:20.907Z,101593.84
2018-08-11T20:03:49.577Z,101594.20
2018-08-11T20:06:18.230Z,101598.16
2018-08-11T20:08:46.941Z,101594.20
2018-08-11T20:11:16.588Z,101592.89
2018-08-11T20:13:45.323Z,101595.52
2018-08-11T20:16:13.979Z,101596.37
2018-08-11T20:18:42.671Z,101594.20
2018-08-11T20:21:11.323Z,101593.73
2018-08-11T20:23:39.964Z,101590.64
2018-08-11T20:26:08.720Z,101595.05
2018-08-11T20:28:37.429Z,101589.32
2018-08-11T20:31:06.204Z,101585.84
2018-08-11T20:33:35.019Z,101588.00
2018-08-11T20:36:03.715Z,101590.91
2018-08-11T20:38:32.399Z,101590.53
2018-08-11T20:41:01.228Z,101587.42
2018-08-11T20:43:29.977Z,101578.20
2018-08-11T20:45:58.680Z,101579.91
2018-08-11T20:48:27.419Z,101574.15
2018-08-11T20:50:56.110Z,101572.83
2018-08-11T20:53:24.824Z,101574.64
2018-08-11T20:55:53.504Z,101568.87
2018-08-11T20:58:22.188Z,101560.98
2018-08-11T21:00:50.899Z,101567.09
2018-08-11T21:03:19.641Z,101553.08
2018-08-11T21:05:48.370Z,101550.36
2018-08-11T21:08:17.084Z,101551.21
2018-08-11T21:10:45.792Z,101542.92
2018-08-11T21:13:14.504Z,101539.36
2018-08-11T21:15:43.267Z,101544.16
2018-08-11T21:18:11.960Z,101535.41
2018-08-11T21:20:40.694Z,101534.94
2018-08-11T21:23:09.357Z,101530.41
2018-08-11T21:25:38.069Z,101525.22
2018-08-11T21:28:06.840Z,101518.09
2018-08-11T21:30:35.555Z,101521.08
2018-08-11T21:33:04.302Z,101518.45
2018-08-11T21:35:33.047Z,101512.70
2018-08-11T21:38:01.738Z,101514.03
2018-08-11T21:40:30.530Z,101516.08
2018-08-11T21:42:59.265Z,101514.77
2018-08-11T21:45:27.947Z,101507.83
2018-08-11T21:47:56.623Z,101509.41
2018-08-11T21:50:25.291Z,101506.86
2018-08-11T21:52:54.014Z,101504.61
2018-08-11T21:55:22.680Z,101502.36
2018-08-11T21:57:51.372Z,101499.23
2018-08-11T22:00:29.577Z,101486.75
2018-08-11T22:02:58.877Z,101486.55
2018-08-11T22:05:28.031Z,101482.02
2018-08-11T22:07:57.617Z,101482.48
2018-08-11T22:10:26.608Z,101482.02
2018-08-11T22:12:55.313Z,101472.69
2018-08-11T22:15:24.191Z,101474.86
2018-08-11T22:17:53.849Z,101472.61
2018-08-11T22:20:22.592Z,101464.89
2018-08-11T22:22:51.279Z,101458.58
2018-08-11T22:25:20.064Z,101462.92
2018-08-11T22:27:48.783Z,101453.69
2018-08-11T22:30:17.503Z,101451.88
2018-08-11T22:32:46.260Z,101446.61
2018-08-11T22:35:14.923Z,101444.83
2018-08-11T22:37:43.603Z,101445.80
2018-08-11T22:40:12.330Z,101443.16
2018-08-11T22:42:41.047Z,101438.36
2018-08-11T22:45:11.296Z,101427.81
2018-08-11T22:47:40.166Z,101428.67
2018-08-11T22:50:12.353Z,101428.67
2018-08-11T22:52:41.060Z,101425.06
2018-08-11T22:55:09.865Z,101417.63
2018-08-11T22:57:38.660Z,101412.36
2018-08-11T23:00:11.543Z,101415.38
2018-08-11T23:02:40.260Z,101421.03
2018-08-11T23:05:09.129Z,101416.58
2018-08-11T23:07:38.059Z,101417.89
2018-08-11T23:10:08.341Z,101404.64
2018-08-11T23:12:37.043Z,101405.10
2018-08-11T23:15:07.040Z,101408.97
2018-08-11T23:17:35.674Z,101404.52
2018-08-11T23:20:04.498Z,101392.78
2018-08-11T23:22:33.200Z,101395.67
2018-08-11T23:25:01.900Z,101386.66
2018-08-11T23:27:30.608Z,101380.34
2018-08-11T23:29:59.295Z,101387.31
2018-08-11T23:32:27.991Z,101382.50
2018-08-11T23:34:56.853Z,101384.67
2018-08-11T23:37:25.633Z,101384.20
2018-08-11T23:39:54.343Z,101365.27
2018-08-11T23:42:23.083Z,101368.28
2018-08-11T23:44:51.781Z,101361.69
2018-08-11T23:47:20.449Z,101365.37
2018-08-11T23:49:49.140Z,101354.38
2018-08-11T23:52:17.820Z,101355.48
2018-08-11T23:54:46.492Z,101350.69
2018-08-11T23:57:15.232Z,101346.73
2018-08-11T23:59:43.895Z,101345.87
